createdAt,value
2022-10-31T00:01:10.923Z,95962.88
2022-10-31T00:03:41.785Z,95959.36
2022-10-31T00:06:08.371Z,95960.61
2022-10-31T00:08:34.964Z,95957.63
2022-10-31T00:11:01.561Z,95957.05
2022-10-31T00:13:28.336Z,95956.97
2022-10-31T00:15:55.039Z,95955.20
2022-10-31T00:18:21.623Z,95955.90
2022-10-31T00:20:48.391Z,95955.20
2022-10-31T00:23:14.901Z,95953.91
2022-10-31T00:25:41.581Z,95952.41
2022-10-31T00:28:11.993Z,95953.52
2022-10-31T00:30:38.739Z,95956.78
2022-10-31T00:33:05.682Z,95958.99
2022-10-31T00:35:32.644Z,95961.79
2022-10-31T00:37:59.353Z,95961.09
2022-10-31T00:40:25.957Z,95959.64
2022-10-31T00:42:53.263Z,95959.05
2022-10-31T00:45:19.869Z,95962.99
2022-10-31T00:47:46.363Z,95960.88
2022-10-31T00:50:13.125Z,95962.54
2022-10-31T00:52:39.610Z,95965.53
2022-10-31T00:55:06.441Z,95965.37
2022-10-31T00:57:32.929Z,95966.36
2022-10-31T00:59:59.472Z,95965.93
2022-10-31T01:02:26.146Z,95970.61
2022-10-31T01:04:52.715Z,95971.05
2022-10-31T01:07:21.134Z,95967.48
2022-10-31T01:09:48.290Z,95968.67
2022-10-31T01:12:15.008Z,95970.59
2022-10-31T01:14:45.619Z,95974.83
2022-10-31T01:17:13.255Z,95977.70
2022-10-31T01:19:40.520Z,95973.48
2022-10-31T01:22:07.035Z,95976.30
2022-10-31T01:24:33.615Z,95979.10
2022-10-31T01:27:01.888Z,95980.83
2022-10-31T01:29:28.500Z,95982.83
2022-10-31T01:31:55.041Z,95980.42
2022-10-31T01:34:21.618Z,95978.80
2022-10-31T01:36:51.436Z,95977.91
2022-10-31T01:39:19.315Z,95979.44
2022-10-31T01:41:49.784Z,95978.25
2022-10-31T01:44:16.515Z,95974.09
2022-10-31T01:46:52.998Z,95975.24
2022-10-31T01:49:45.831Z,95974.99
2022-10-31T01:52:23.191Z,95971.40
2022-10-31T01:55:01.752Z,95969.94
2022-10-31T01:57:30.749Z,95972.00
2022-10-31T02:00:03.622Z,95965.98
2022-10-31T02:02:40.374Z,95963.39
2022-10-31T02:05:12.780Z,95962.54
2022-10-31T02:07:46.579Z,95964.08
2022-10-31T02:10:13.285Z,95957.93
2022-10-31T02:12:41.463Z,95957.26
2022-10-31T02:15:09.204Z,95957.53
2022-10-31T02:17:35.771Z,95960.36
2022-10-31T02:20:16.181Z,95963.92
2022-10-31T02:22:58.134Z,95962.13
2022-10-31T02:25:56.096Z,95960.49
2022-10-31T02:28:29.338Z,95957.80
2022-10-31T02:31:31.239Z,95962.45
2022-10-31T02:34:12.442Z,95958.77
2022-10-31T02:36:47.812Z,95955.51
2022-10-31T02:39:23.655Z,95952.95
2022-10-31T02:42:13.718Z,95951.30
2022-10-31T02:45:00.952Z,95947.56
2022-10-31T02:47:33.302Z,95946.86
2022-10-31T02:50:06.084Z,95946.15
2022-10-31T02:52:34.424Z,95944.31
2022-10-31T02:55:29.877Z,95950.68
2022-10-31T02:58:12.772Z,95953.37
2022-10-31T03:00:58.779Z,95957.85
2022-10-31T03:03:42.737Z,95959.02
2022-10-31T03:06:21.020Z,95961.81
2022-10-31T03:08:53.465Z,95958.61
2022-10-31T03:11:25.641Z,95957.41
2022-10-31T03:14:00.909Z,95956.52
2022-10-31T03:16:45.783Z,95953.96
2022-10-31T03:19:20.198Z,95956.19
2022-10-31T03:21:52.751Z,95956.35
2022-10-31T03:24:24.924Z,95953.67
2022-10-31T03:26:55.151Z,95952.16
2022-10-31T03:29:28.262Z,95949.30
2022-10-31T03:31:59.742Z,95952.60
2022-10-31T03:34:29.791Z,95954.88
2022-10-31T03:37:01.350Z,95955.56
2022-10-31T03:39:28.931Z,95958.16
2022-10-31T03:42:02.550Z,95958.98
2022-10-31T03:44:31.447Z,95962.52
2022-10-31T03:47:02.048Z,95967.67
2022-10-31T03:49:29.794Z,95965.72
2022-10-31T03:52:12.550Z,95966.35
2022-10-31T03:54:45.149Z,95967.11
2022-10-31T03:57:22.307Z,95967.16
2022-10-31T03:59:55.638Z,95972.17
2022-10-31T04:02:29.256Z,95966.52
2022-10-31T04:04:57.060Z,95966.54
2022-10-31T04:07:28.891Z,95970.11
2022-10-31T04:09:57.970Z,95966.55
2022-10-31T04:12:27.776Z,95966.94
2022-10-31T04:15:19.768Z,95965.66
2022-10-31T04:17:49.933Z,95967.22
2022-10-31T04:20:18.499Z,95969.96
2022-10-31T04:22:45.297Z,95973.17
2022-10-31T04:25:11.792Z,95972.35
2022-10-31T04:27:38.426Z,95973.23
2022-10-31T04:30:07.583Z,95972.46
2022-10-31T04:32:34.587Z,95975.49
2022-10-31T04:35:01.088Z,95974.21
2022-10-31T04:37:28.048Z,95975.65
2022-10-31T04:39:54.604Z,95977.10
2022-10-31T04:42:53.434Z,95975.58
2022-10-31T04:45:21.305Z,95974.45
2022-10-31T04:47:50.914Z,95974.70
2022-10-31T04:50:17.874Z,95972.27
2022-10-31T04:52:46.459Z,95973.31
2022-10-31T04:55:15.827Z,95972.58
2022-10-31T04:58:01.326Z,95978.36
2022-10-31T05:00:28.740Z,95978.61
2022-10-31T05:02:58.347Z,95977.27
2022-10-31T05:05:30.268Z,95979.78
2022-10-31T05:07:58.159Z,95976.05
2022-10-31T05:10:28.108Z,95982.07
2022-10-31T05:12:57.608Z,95981.62
2022-10-31T05:15:44.404Z,95989.11
2022-10-31T05:18:34.116Z,95988.48
2022-10-31T05:21:19.335Z,95997.48
2022-10-31T05:23:51.027Z,96003.10
2022-10-31T05:26:17.785Z,96008.70
2022-10-31T05:28:45.127Z,96012.59
2022-10-31T05:31:11.775Z,96012.86
2022-10-31T05:33:38.381Z,96011.81
2022-10-31T05:36:23.259Z,96018.17
2022-10-31T05:38:57.020Z,96022.08
2022-10-31T05:41:30.841Z,96024.30
2022-10-31T05:44:15.103Z,96026.84
2022-10-31T05:46:52.130Z,96028.96
2022-10-31T05:49:18.787Z,96026.63
2022-10-31T05:52:03.557Z,96030.30
2022-10-31T05:54:37.644Z,96024.70
2022-10-31T05:57:04.258Z,96022.57
2022-10-31T05:59:31.012Z,96023.42
2022-10-31T06:01:58.299Z,96027.88
2022-10-31T06:04:43.686Z,96026.80
2022-10-31T06:07:10.399Z,96032.29
2022-10-31T06:09:36.960Z,96036.44
2022-10-31T06:12:03.940Z,96036.84
2022-10-31T06:14:49.219Z,96043.89
2022-10-31T06:17:16.368Z,96036.25
2022-10-31T06:19:42.989Z,96029.79
2022-10-31T06:22:11.819Z,96029.23
2022-10-31T06:24:38.826Z,96032.43
2022-10-31T06:27:24.880Z,96035.16
2022-10-31T06:29:51.762Z,96034.83
2022-10-31T06:32:27.041Z,96040.19
2022-10-31T06:34:53.809Z,96041.21
2022-10-31T06:37:20.868Z,96040.02
2022-10-31T06:39:49.429Z,96041.17
2022-10-31T06:42:17.294Z,96038.81
2022-10-31T06:44:43.895Z,96033.02
2022-10-31T06:47:29.039Z,96032.92
2022-10-31T06:50:00.593Z,96032.07
2022-10-31T06:52:27.287Z,96034.95
2022-10-31T06:54:53.769Z,96037.45
2022-10-31T06:57:21.138Z,96033.64
2022-10-31T06:59:47.823Z,96028.65
2022-10-31T07:02:14.578Z,96030.71
2022-10-31T07:04:42.706Z,96028.91
2022-10-31T07:07:12.628Z,96025.98
2022-10-31T07:09:39.799Z,96026.67
2022-10-31T07:12:07.342Z,96031.42
2022-10-31T07:14:37.394Z,96028.63
2022-10-31T07:17:04.242Z,96031.39
2022-10-31T07:19:37.067Z,96033.09
2022-10-31T07:22:03.963Z,96030.09
2022-10-31T07:24:31.076Z,96025.31
2022-10-31T07:27:16.431Z,96023.84
2022-10-31T07:29:44.713Z,96025.59
2022-10-31T07:32:11.908Z,96029.38
2022-10-31T07:34:46.564Z,96031.23
2022-10-31T07:37:20.756Z,96028.67
2022-10-31T07:39:48.297Z,96026.63
2022-10-31T07:42:15.167Z,96029.32
2022-10-31T07:44:44.659Z,96024.52
2022-10-31T07:47:29.699Z,96022.68
2022-10-31T07:50:34.751Z,96018.79
2022-10-31T07:53:19.856Z,96017.06
2022-10-31T07:55:55.312Z,96020.15
2022-10-31T07:58:25.579Z,96021.73
2022-10-31T08:00:52.219Z,96019.42
2022-10-31T08:03:24.870Z,96020.42
2022-10-31T08:06:10.600Z,96022.39
2022-10-31T08:08:49.492Z,96025.27
2022-10-31T08:11:17.493Z,96021.15
2022-10-31T08:13:44.389Z,96017.84
2022-10-31T08:16:13.709Z,96017.17
2022-10-31T08:18:49.002Z,96020.09
2022-10-31T08:21:16.139Z,96019.73
2022-10-31T08:23:43.120Z,96021.20
2022-10-31T08:26:09.810Z,96014.46
2022-10-31T08:28:36.893Z,96017.94
2022-10-31T08:31:03.815Z,96025.54
2022-10-31T08:33:39.639Z,96032.55
2022-10-31T08:36:25.443Z,96031.00
2022-10-31T08:39:14.603Z,96033.52
2022-10-31T08:41:41.336Z,96029.71
2022-10-31T08:44:11.610Z,96028.09
2022-10-31T08:46:38.233Z,96027.27
2022-10-31T08:49:04.946Z,96030.33
2022-10-31T08:51:31.770Z,96032.08
2022-10-31T08:53:58.935Z,96036.79
2022-10-31T08:56:44.097Z,96049.54
2022-10-31T08:59:29.272Z,96045.80
2022-10-31T09:02:14.297Z,96050.70
2022-10-31T09:04:41.454Z,96048.58
2022-10-31T09:07:20.631Z,96046.41
2022-10-31T09:09:48.715Z,96045.42
2022-10-31T09:12:15.428Z,96047.45
2022-10-31T09:14:47.969Z,96047.42
2022-10-31T09:17:38.803Z,96050.64
2022-10-31T09:20:16.503Z,96049.08
2022-10-31T09:22:43.382Z,96051.17
2022-10-31T09:25:13.601Z,96053.65
2022-10-31T09:27:40.789Z,96055.70
2022-10-31T09:30:08.842Z,96057.63
2022-10-31T09:32:35.811Z,96055.70
2022-10-31T09:35:07.556Z,96054.35
2022-10-31T09:37:34.234Z,96051.41
2022-10-31T09:40:01.012Z,96054.33
2022-10-31T09:42:43.260Z,96050.05
2022-10-31T09:45:25.584Z,96047.91
2022-10-31T09:48:11.424Z,96051.94
2022-10-31T09:50:50.235Z,96053.77
2022-10-31T09:53:35.646Z,96054.86
2022-10-31T09:56:08.486Z,96057.62
2022-10-31T09:58:42.017Z,96062.18
2022-10-31T10:01:20.539Z,96063.16
2022-10-31T10:03:50.362Z,96064.84
2022-10-31T10:06:47.286Z,96059.91
2022-10-31T10:09:39.463Z,96056.48
2022-10-31T10:12:53.480Z,96053.56
2022-10-31T10:15:37.825Z,96057.73
2022-10-31T10:18:26.211Z,96061.27
2022-10-31T10:21:05.536Z,96060.11
2022-10-31T10:24:14.233Z,96059.23
2022-10-31T10:26:44.284Z,96060.61
2022-10-31T10:29:27.405Z,96061.27
2022-10-31T10:31:57.700Z,96060.27
2022-10-31T10:34:35.163Z,96058.61
2022-10-31T10:37:22.715Z,96055.81
2022-10-31T10:39:56.202Z,96053.42
2022-10-31T10:42:45.702Z,96058.00
2022-10-31T10:45:39.219Z,96057.98
2022-10-31T10:48:27.947Z,96060.20
2022-10-31T10:50:55.372Z,96057.81
2022-10-31T10:53:32.973Z,96057.40
2022-10-31T10:56:44.661Z,96059.23
2022-10-31T10:59:17.796Z,96054.33
2022-10-31T11:01:45.287Z,96052.73
2022-10-31T11:04:33.877Z,96051.52
2022-10-31T11:07:05.125Z,96050.13
2022-10-31T11:09:33.905Z,96045.05
2022-10-31T11:12:41.883Z,96048.31
2022-10-31T11:15:18.814Z,96051.73
2022-10-31T11:17:50.227Z,96055.39
2022-10-31T11:20:19.050Z,96054.58
2022-10-31T11:22:47.870Z,96054.50
2022-10-31T11:25:20.144Z,96052.73
2022-10-31T11:27:47.717Z,96044.89
2022-10-31T11:30:22.734Z,96050.42
2022-10-31T11:32:52.744Z,96049.87
2022-10-31T11:35:22.516Z,96048.86
2022-10-31T11:37:52.224Z,96048.35
2022-10-31T11:40:23.011Z,96043.77
2022-10-31T11:42:52.102Z,96040.14
2022-10-31T11:45:31.028Z,96044.77
2022-10-31T11:48:01.581Z,96039.61
2022-10-31T11:50:39.879Z,96041.97
2022-10-31T11:53:18.919Z,96049.48
2022-10-31T11:55:47.008Z,96048.30
2022-10-31T11:58:25.243Z,96046.00
2022-10-31T12:00:55.450Z,96044.21
2022-10-31T12:04:03.468Z,96037.44
2022-10-31T12:06:39.114Z,96035.62
2022-10-31T12:09:22.594Z,96039.77
2022-10-31T12:12:07.368Z,96034.53
2022-10-31T12:14:45.191Z,96035.91
2022-10-31T12:17:24.977Z,96034.96
2022-10-31T12:20:16.782Z,96030.34
2022-10-31T12:23:04.702Z,96034.98
2022-10-31T12:25:45.267Z,96030.05
2022-10-31T12:28:19.823Z,96027.04
2022-10-31T12:30:46.405Z,96031.77
2022-10-31T12:33:35.138Z,96028.28
2022-10-31T12:36:20.886Z,96031.35
2022-10-31T12:39:13.431Z,96026.67
2022-10-31T12:41:48.022Z,96029.84
2022-10-31T12:44:45.800Z,96025.32
2022-10-31T12:47:15.078Z,96022.54
2022-10-31T12:49:58.171Z,96019.46
2022-10-31T12:52:47.808Z,96022.10
2022-10-31T12:55:38.404Z,96016.23
2022-10-31T12:58:15.820Z,96018.23
2022-10-31T13:00:48.558Z,96017.58
2022-10-31T13:03:34.145Z,96015.59
2022-10-31T13:06:09.243Z,96016.60
2022-10-31T13:08:43.787Z,96013.36
2022-10-31T13:11:13.396Z,96010.78
2022-10-31T13:13:55.853Z,96011.60
2022-10-31T13:16:27.187Z,96005.41
2022-10-31T13:19:00.725Z,96013.33
2022-10-31T13:21:33.613Z,96008.80
2022-10-31T13:24:04.831Z,96011.66
2022-10-31T13:26:44.388Z,96008.89
2022-10-31T13:29:33.037Z,96008.33
2022-10-31T13:32:07.641Z,96009.27
2022-10-31T13:34:39.579Z,96012.02
2022-10-31T13:37:21.763Z,96008.54
2022-10-31T13:40:23.210Z,96012.17
2022-10-31T13:43:06.334Z,96008.25
2022-10-31T13:45:33.302Z,96007.84
2022-10-31T13:48:17.984Z,96013.36
2022-10-31T13:51:01.514Z,96009.73
2022-10-31T13:53:41.231Z,96009.44
2022-10-31T13:56:29.890Z,96009.60
2022-10-31T13:59:17.588Z,96007.98
2022-10-31T14:02:11.980Z,96008.63
2022-10-31T14:04:47.425Z,96003.17
2022-10-31T14:07:21.569Z,95999.39
2022-10-31T14:10:02.429Z,96002.06
2022-10-31T14:12:40.210Z,96002.75
2022-10-31T14:15:09.972Z,96002.91
2022-10-31T14:17:48.225Z,96006.14
2022-10-31T14:20:14.669Z,96013.66
2022-10-31T14:22:43.080Z,96012.59
2022-10-31T14:25:26.655Z,96011.41
2022-10-31T14:27:54.042Z,96007.73
2022-10-31T14:30:24.817Z,96007.69
2022-10-31T14:33:18.704Z,96004.80
2022-10-31T14:36:16.051Z,96006.72
2022-10-31T14:39:10.060Z,96005.05
2022-10-31T14:42:01.336Z,96008.98
2022-10-31T14:44:46.425Z,96002.86
2022-10-31T14:47:13.021Z,96008.73
2022-10-31T14:49:49.424Z,96007.81
2022-10-31T14:52:19.161Z,96003.63
2022-10-31T14:54:54.110Z,96006.45
2022-10-31T14:57:34.234Z,96004.96
2022-10-31T15:00:07.551Z,96007.66
2022-10-31T15:03:01.439Z,96009.48
2022-10-31T15:05:29.608Z,96007.26
2022-10-31T15:07:58.878Z,96010.42
2022-10-31T15:10:37.387Z,96014.98
2022-10-31T15:13:30.553Z,96013.15
2022-10-31T15:15:57.844Z,96017.60
2022-10-31T15:18:29.115Z,96020.00
2022-10-31T15:20:57.134Z,96016.56
2022-10-31T15:23:29.401Z,96018.89
2022-10-31T15:26:05.288Z,96018.86
2022-10-31T15:28:32.431Z,96023.33
2022-10-31T15:31:01.587Z,96025.46
2022-10-31T15:33:43.830Z,96027.33
2022-10-31T15:36:25.683Z,96031.38
2022-10-31T15:38:58.905Z,96034.80
2022-10-31T15:41:54.705Z,96033.02
2022-10-31T15:44:34.190Z,96031.57
2022-10-31T15:47:05.663Z,96034.71
2022-10-31T15:49:38.995Z,96034.36
2022-10-31T15:52:10.183Z,96032.22
2022-10-31T15:54:48.128Z,96036.27
2022-10-31T15:57:15.669Z,96038.08
2022-10-31T15:59:46.835Z,96042.11
2022-10-31T16:02:15.338Z,96038.51
2022-10-31T16:04:50.753Z,96038.52
2022-10-31T16:07:23.160Z,96043.90
2022-10-31T16:09:59.145Z,96049.43
2022-10-31T16:12:35.140Z,96050.33
2022-10-31T16:15:03.898Z,96052.98
2022-10-31T16:17:31.727Z,96054.80
2022-10-31T16:20:05.294Z,96058.63
2022-10-31T16:22:35.321Z,96061.30
2022-10-31T16:25:01.995Z,96061.40
2022-10-31T16:27:31.828Z,96060.42
2022-10-31T16:30:04.634Z,96065.25
2022-10-31T16:32:35.580Z,96066.45
2022-10-31T16:35:02.208Z,96070.85
2022-10-31T16:37:29.171Z,96073.47
2022-10-31T16:39:55.920Z,96076.65
2022-10-31T16:42:22.791Z,96078.92
2022-10-31T16:44:49.643Z,96078.61
2022-10-31T16:47:18.022Z,96082.62
2022-10-31T16:49:49.079Z,96086.23
2022-10-31T16:52:16.990Z,96088.93
2022-10-31T16:54:43.986Z,96086.54
2022-10-31T16:57:22.697Z,96087.49
2022-10-31T16:59:52.090Z,96090.40
2022-10-31T17:02:18.855Z,96088.09
2022-10-31T17:04:46.373Z,96091.54
2022-10-31T17:07:14.216Z,96094.20
2022-10-31T17:09:40.832Z,96091.58
2022-10-31T17:12:16.618Z,96093.77
2022-10-31T17:14:51.439Z,96095.95
2022-10-31T17:17:18.324Z,96098.14
2022-10-31T17:19:45.073Z,96098.44
2022-10-31T17:22:13.630Z,96103.61
2022-10-31T17:24:40.312Z,96101.30
2022-10-31T17:27:06.831Z,96101.70
2022-10-31T17:29:34.583Z,96102.49
2022-10-31T17:32:02.610Z,96103.73
2022-10-31T17:34:29.892Z,96104.98
2022-10-31T17:36:56.752Z,96104.75
2022-10-31T17:39:23.359Z,96103.48
2022-10-31T17:41:51.176Z,96108.51
2022-10-31T17:44:18.411Z,96102.99
2022-10-31T17:46:45.187Z,96103.77
2022-10-31T17:49:12.000Z,96103.75
2022-10-31T17:51:38.760Z,96106.45
2022-10-31T17:54:06.423Z,96104.39
2022-10-31T17:56:33.033Z,96103.45
2022-10-31T17:58:59.684Z,96105.48
2022-10-31T18:01:26.601Z,96105.55
2022-10-31T18:03:53.209Z,96101.02
2022-10-31T18:06:19.758Z,96097.37
2022-10-31T18:08:46.455Z,96099.16
2022-10-31T18:11:17.191Z,96101.67
2022-10-31T18:13:43.895Z,96098.42
2022-10-31T18:16:13.600Z,96104.98
2022-10-31T18:18:40.455Z,96103.66
2022-10-31T18:21:07.258Z,96102.76
2022-10-31T18:23:34.081Z,96106.95
2022-10-31T18:26:00.934Z,96106.31
2022-10-31T18:28:27.431Z,96108.32
2022-10-31T18:30:54.017Z,96108.04
2022-10-31T18:33:20.638Z,96106.14
2022-10-31T18:35:47.256Z,96110.05
2022-10-31T18:38:13.951Z,96107.60
2022-10-31T18:40:40.602Z,96106.04
2022-10-31T18:43:07.405Z,96109.85
2022-10-31T18:45:46.595Z,96109.26
2022-10-31T18:48:15.129Z,96106.73
2022-10-31T18:50:42.664Z,96107.84
2022-10-31T18:53:14.155Z,96108.27
2022-10-31T18:55:49.957Z,96110.30
2022-10-31T18:58:17.159Z,96114.07
2022-10-31T19:00:45.172Z,96110.23
2022-10-31T19:03:12.411Z,96104.78
2022-10-31T19:05:38.863Z,96103.69
2022-10-31T19:08:05.820Z,96103.48
2022-10-31T19:10:37.528Z,96107.05
2022-10-31T19:13:04.920Z,96105.59
2022-10-31T19:15:34.151Z,96107.86
2022-10-31T19:18:01.203Z,96107.39
2022-10-31T19:20:27.837Z,96109.06
2022-10-31T19:22:54.419Z,96106.59
2022-10-31T19:25:21.139Z,96107.09
2022-10-31T19:27:47.699Z,96105.75
2022-10-31T19:30:14.624Z,96103.63
2022-10-31T19:32:41.252Z,96102.37
2022-10-31T19:35:08.641Z,96101.36
2022-10-31T19:37:36.112Z,96100.31
2022-10-31T19:40:04.289Z,96101.04
2022-10-31T19:42:30.988Z,96102.62
2022-10-31T19:44:57.596Z,96101.06
2022-10-31T19:47:24.256Z,96101.48
2022-10-31T19:49:50.938Z,96099.16
2022-10-31T19:52:17.529Z,96098.52
2022-10-31T19:54:44.321Z,96099.30
2022-10-31T19:57:11.231Z,96102.42
2022-10-31T19:59:39.537Z,96103.86
2022-10-31T20:02:06.246Z,96102.16
2022-10-31T20:04:32.880Z,96103.55
2022-10-31T20:06:59.457Z,96100.80
2022-10-31T20:09:26.062Z,96103.89
2022-10-31T20:11:52.602Z,96105.33
2022-10-31T20:14:19.193Z,96106.56
2022-10-31T20:16:46.081Z,96109.00
2022-10-31T20:19:12.845Z,96110.20
2022-10-31T20:21:40.171Z,96108.41
2022-10-31T20:24:09.473Z,96111.46
2022-10-31T20:26:38.664Z,96115.98
2022-10-31T20:29:05.663Z,96113.56
2022-10-31T20:31:34.836Z,96112.92
2022-10-31T20:34:01.883Z,96117.17
2022-10-31T20:36:28.970Z,96116.69
2022-10-31T20:38:55.856Z,96112.54
2022-10-31T20:41:22.428Z,96114.29
2022-10-31T20:43:48.982Z,96118.11
2022-10-31T20:46:21.234Z,96117.89
2022-10-31T20:48:47.915Z,96113.22
2022-10-31T20:51:17.383Z,96118.27
2022-10-31T20:53:44.343Z,96116.70
2022-10-31T20:56:13.995Z,96120.15
2022-10-31T20:58:41.846Z,96117.38
2022-10-31T21:01:12.651Z,96117.39
2022-10-31T21:03:39.834Z,96115.94
2022-10-31T21:06:06.947Z,96115.82
2022-10-31T21:08:33.728Z,96113.66
2022-10-31T21:11:04.307Z,96110.22
2022-10-31T21:13:31.307Z,96109.68
2022-10-31T21:16:03.151Z,96106.39
2022-10-31T21:18:29.706Z,96106.55
2022-10-31T21:20:56.259Z,96105.58
2022-10-31T21:23:23.478Z,96105.21
2022-10-31T21:25:50.299Z,96104.50
2022-10-31T21:28:16.887Z,96106.79
2022-10-31T21:30:46.506Z,96105.86
2022-10-31T21:33:13.578Z,96107.65
2022-10-31T21:35:40.207Z,96105.34
2022-10-31T21:38:06.737Z,96104.16
2022-10-31T21:40:33.682Z,96107.28
2022-10-31T21:43:00.442Z,96102.23
2022-10-31T21:45:27.180Z,96100.64
2022-10-31T21:47:53.681Z,96103.37
2022-10-31T21:50:20.241Z,96099.23
2022-10-31T21:52:46.779Z,96094.04
2022-10-31T21:55:13.303Z,96094.25
2022-10-31T21:57:39.805Z,96095.08
2022-10-31T22:00:08.408Z,96097.80
2022-10-31T22:02:36.482Z,96100.40
2022-10-31T22:05:03.462Z,96099.25
2022-10-31T22:07:31.259Z,96094.89
2022-10-31T22:09:57.903Z,96093.71
2022-10-31T22:12:24.527Z,96089.80
2022-10-31T22:14:51.157Z,96088.11
2022-10-31T22:17:17.794Z,96087.43
2022-10-31T22:19:44.594Z,96089.26
2022-10-31T22:22:12.501Z,96085.52
2022-10-31T22:24:38.995Z,96084.15
2022-10-31T22:27:05.487Z,96082.48
2022-10-31T22:29:32.094Z,96085.02
2022-10-31T22:31:59.785Z,96086.23
2022-10-31T22:34:28.341Z,96084.25
2022-10-31T22:36:55.901Z,96086.92
2022-10-31T22:39:22.521Z,96083.23
2022-10-31T22:41:49.079Z,96081.83
2022-10-31T22:44:15.631Z,96084.80
2022-10-31T22:46:42.200Z,96089.23
2022-10-31T22:49:14.252Z,96089.04
2022-10-31T22:51:41.727Z,96085.31
2022-10-31T22:54:16.190Z,96086.40
2022-10-31T22:56:43.562Z,96089.25
2022-10-31T22:59:14.398Z,96086.98
2022-10-31T23:01:44.046Z,96088.75
2022-10-31T23:06:38.320Z,96083.70
2022-10-31T23:09:06.632Z,96080.92
2022-10-31T23:11:37.053Z,96082.41
2022-10-31T23:14:13.279Z,96083.02
2022-10-31T23:16:39.716Z,96084.52
2022-10-31T23:19:07.656Z,96081.48
2022-10-31T23:21:54.269Z,96085.41
2022-10-31T23:24:23.779Z,96081.71
2022-10-31T23:27:09.993Z,96080.04
2022-10-31T23:29:56.716Z,96081.57
2022-10-31T23:32:25.195Z,96078.67
2022-10-31T23:34:56.744Z,96076.77
2022-10-31T23:37:25.852Z,96076.38
2022-10-31T23:39:52.603Z,96076.36
2022-10-31T23:42:19.584Z,96076.42
2022-10-31T23:44:46.653Z,96075.20
2022-10-31T23:47:14.126Z,96079.55
2022-10-31T23:49:40.828Z,96075.65
2022-10-31T23:52:08.296Z,96073.94
2022-10-31T23:54:34.935Z,96082.36
2022-10-31T23:57:01.997Z,96080.13
2022-10-31T23:59:28.632Z,96080.79
